createdAt,value
2023-04-25T00:01:57.682Z,6.34
2023-04-25T00:04:24.594Z,6.21
2023-04-25T00:06:51.219Z,6.28
2023-04-25T00:09:17.594Z,6.41
2023-04-25T00:11:44.045Z,6.32
2023-04-25T00:14:10.930Z,6.33
2023-04-25T00:16:37.783Z,6.33
2023-04-25T00:19:04.386Z,6.34
2023-04-25T00:21:32.442Z,6.35
2023-04-25T00:23:59.421Z,6.43
2023-04-25T00:26:26.309Z,6.35
2023-04-25T00:28:52.954Z,6.39
2023-04-25T00:31:19.482Z,6.29
2023-04-25T00:33:46.100Z,6.30
2023-04-25T00:36:12.708Z,6.25
2023-04-25T00:38:39.282Z,6.27
2023-04-25T00:41:08.396Z,6.30
2023-04-25T00:43:34.887Z,6.22
2023-04-25T00:46:02.250Z,6.38
2023-04-25T00:48:29.144Z,6.28
2023-04-25T00:50:58.642Z,6.29
2023-04-25T00:53:28.766Z,6.26
2023-04-25T00:55:56.093Z,6.22
2023-04-25T00:58:23.171Z,6.37
2023-04-25T01:00:52.889Z,6.27
2023-04-25T01:03:23.541Z,6.21
2023-04-25T01:05:51.374Z,6.26
2023-04-25T01:08:17.847Z,6.26
2023-04-25T01:10:44.317Z,6.34
2023-04-25T01:13:10.875Z,6.48
2023-04-25T01:15:37.381Z,6.34
2023-04-25T01:18:06.292Z,6.34
2023-04-25T01:20:34.010Z,6.38
2023-04-25T01:23:01.418Z,6.34
2023-04-25T01:25:28.425Z,6.36
2023-04-25T01:27:56.825Z,6.34
2023-04-25T01:30:23.355Z,6.28
2023-04-25T01:32:50.324Z,6.16
2023-04-25T01:35:16.781Z,6.30
2023-04-25T01:37:44.052Z,6.16
2023-04-25T01:40:13.666Z,6.28
2023-04-25T01:42:44.068Z,6.17
2023-04-25T01:45:11.998Z,6.12
2023-04-25T01:47:40.931Z,6.10
2023-04-25T01:50:08.764Z,6.14
2023-04-25T01:52:36.714Z,6.19
2023-04-25T01:55:03.735Z,6.10
2023-04-25T01:57:33.046Z,6.15
2023-04-25T02:00:03.842Z,6.06
2023-04-25T02:02:39.750Z,5.97
2023-04-25T02:05:14.564Z,5.85
2023-04-25T02:07:42.987Z,5.93
2023-04-25T02:10:10.122Z,5.84
2023-04-25T02:12:45.298Z,5.94
2023-04-25T02:15:20.165Z,5.86
2023-04-25T02:17:56.227Z,5.91
2023-04-25T02:20:24.181Z,6.01
2023-04-25T02:22:51.008Z,6.04
2023-04-25T02:25:19.041Z,6.05
2023-04-25T02:27:47.458Z,5.88
2023-04-25T02:30:14.272Z,6.04
2023-04-25T02:32:41.121Z,5.90
2023-04-25T02:35:09.722Z,5.90
2023-04-25T02:37:37.560Z,5.89
2023-04-25T02:40:05.095Z,6.03
2023-04-25T02:42:32.173Z,5.97
2023-04-25T02:44:58.845Z,5.99
2023-04-25T02:47:27.248Z,6.02
2023-04-25T02:49:53.800Z,6.03
2023-04-25T02:52:20.412Z,5.98
2023-04-25T02:54:53.842Z,6.04
2023-04-25T02:57:20.515Z,6.07
2023-04-25T02:59:47.164Z,6.05
2023-04-25T03:02:13.774Z,5.97
2023-04-25T03:04:40.788Z,5.96
2023-04-25T03:07:07.386Z,5.89
2023-04-25T03:09:33.865Z,5.88
2023-04-25T03:12:02.347Z,5.89
2023-04-25T03:14:28.831Z,5.88
2023-04-25T03:16:55.894Z,5.85
2023-04-25T03:19:22.396Z,5.84
2023-04-25T03:21:49.060Z,5.88
2023-04-25T03:24:16.106Z,5.84
2023-04-25T03:26:42.585Z,5.83
2023-04-25T03:29:09.498Z,5.74
2023-04-25T03:31:37.560Z,5.70
2023-04-25T03:34:04.072Z,5.81
2023-04-25T03:36:30.478Z,5.76
2023-04-25T03:38:57.113Z,5.73
2023-04-25T03:41:24.374Z,5.80
2023-04-25T03:44:02.377Z,5.72
2023-04-25T03:46:28.882Z,5.66
2023-04-25T03:48:56.016Z,5.70
2023-04-25T03:51:28.819Z,5.70
2023-04-25T03:53:55.559Z,5.69
2023-04-25T03:56:31.310Z,5.70
2023-04-25T03:59:05.649Z,5.74
2023-04-25T04:01:32.638Z,5.73
2023-04-25T04:03:59.372Z,5.71
2023-04-25T04:06:27.677Z,5.71
2023-04-25T04:09:02.592Z,5.72
2023-04-25T04:11:32.319Z,5.73
2023-04-25T04:13:58.884Z,5.68
2023-04-25T04:16:25.993Z,5.62
2023-04-25T04:18:52.785Z,5.73
2023-04-25T04:21:19.155Z,5.62
2023-04-25T04:23:45.832Z,5.68
2023-04-25T04:26:13.883Z,5.63
2023-04-25T04:28:57.419Z,5.59
2023-04-25T04:31:40.908Z,5.69
2023-04-25T04:34:07.406Z,5.63
2023-04-25T04:36:35.300Z,5.67
2023-04-25T04:39:02.925Z,5.68
2023-04-25T04:41:35.821Z,5.70
2023-04-25T04:44:15.700Z,5.73
2023-04-25T04:46:47.772Z,5.59
2023-04-25T04:49:46.690Z,5.56
2023-04-25T04:52:29.852Z,5.61
2023-04-25T04:55:05.362Z,5.56
2023-04-25T04:57:40.815Z,5.59
2023-04-25T05:00:42.662Z,5.66
2023-04-25T05:03:28.983Z,5.63
2023-04-25T05:06:15.210Z,5.68
2023-04-25T05:08:53.649Z,5.75
2023-04-25T05:11:36.843Z,5.61
2023-04-25T05:14:24.279Z,5.65
2023-04-25T05:17:26.543Z,5.70
2023-04-25T05:20:03.714Z,5.68
2023-04-25T05:22:44.118Z,5.72
2023-04-25T05:25:18.729Z,5.77
2023-04-25T05:28:10.055Z,5.74
2023-04-25T05:30:39.237Z,5.78
2023-04-25T05:33:17.798Z,5.72
2023-04-25T05:35:45.654Z,5.74
2023-04-25T05:38:12.283Z,5.85
2023-04-25T05:41:05.039Z,5.86
2023-04-25T05:43:50.498Z,5.86
2023-04-25T05:46:27.234Z,5.99
2023-04-25T05:49:18.961Z,5.89
2023-04-25T05:52:04.404Z,5.82
2023-04-25T05:54:49.358Z,5.84
2023-04-25T05:57:26.200Z,5.87
2023-04-25T05:59:54.604Z,5.98
2023-04-25T06:02:22.939Z,6.00
2023-04-25T06:04:52.046Z,6.16
2023-04-25T06:07:19.791Z,6.20
2023-04-25T06:09:46.417Z,6.28
2023-04-25T06:12:13.020Z,6.19
2023-04-25T06:14:39.799Z,6.21
2023-04-25T06:17:09.376Z,6.24
2023-04-25T06:19:37.192Z,6.38
2023-04-25T06:22:03.634Z,6.37
2023-04-25T06:24:31.555Z,6.39
2023-04-25T06:26:58.175Z,6.28
2023-04-25T06:29:24.864Z,6.38
2023-04-25T06:31:51.434Z,6.25
2023-04-25T06:34:18.805Z,6.17
2023-04-25T06:36:45.889Z,6.24
2023-04-25T06:39:15.472Z,6.36
2023-04-25T06:41:42.036Z,6.36
2023-04-25T06:44:16.198Z,6.32
2023-04-25T06:46:53.269Z,6.35
2023-04-25T06:49:20.271Z,6.34
2023-04-25T06:51:46.843Z,6.38
2023-04-25T06:54:14.822Z,6.37
2023-04-25T06:56:53.008Z,6.27
2023-04-25T06:59:19.879Z,6.37
2023-04-25T07:01:46.829Z,6.26
2023-04-25T07:04:21.204Z,6.25
2023-04-25T07:06:55.931Z,6.45
2023-04-25T07:09:31.211Z,6.64
2023-04-25T07:11:59.663Z,6.42
2023-04-25T07:14:27.240Z,6.46
2023-04-25T07:16:54.527Z,6.53
2023-04-25T07:19:21.049Z,6.74
2023-04-25T07:21:47.802Z,6.78
2023-04-25T07:24:14.185Z,6.71
2023-04-25T07:26:45.852Z,6.68
2023-04-25T07:29:22.279Z,6.63
2023-04-25T07:31:48.985Z,6.56
2023-04-25T07:34:15.533Z,6.85
2023-04-25T07:36:42.428Z,6.72
2023-04-25T07:39:10.093Z,6.78
2023-04-25T07:41:36.736Z,6.82
2023-04-25T07:44:03.740Z,7.01
2023-04-25T07:46:31.852Z,7.05
2023-04-25T07:48:58.669Z,7.11
2023-04-25T07:51:25.637Z,6.89
2023-04-25T07:53:54.077Z,6.93
2023-04-25T07:56:21.490Z,6.93
2023-04-25T07:58:49.374Z,7.03
2023-04-25T08:01:18.469Z,7.20
2023-04-25T08:03:53.045Z,7.27
2023-04-25T08:06:30.574Z,7.34
2023-04-25T08:09:12.627Z,7.48
2023-04-25T08:11:42.710Z,7.53
2023-04-25T08:14:12.434Z,7.49
2023-04-25T08:16:40.924Z,7.67
2023-04-25T08:19:07.333Z,7.76
2023-04-25T08:21:34.494Z,7.95
2023-04-25T08:24:04.936Z,8.05
2023-04-25T08:26:35.727Z,8.08
2023-04-25T08:29:06.446Z,8.10
2023-04-25T08:31:33.618Z,7.88
2023-04-25T08:34:02.715Z,7.82
2023-04-25T08:36:39.929Z,7.95
2023-04-25T08:39:29.774Z,7.78
2023-04-25T08:42:29.962Z,7.86
2023-04-25T08:44:57.293Z,7.85
2023-04-25T08:47:29.434Z,7.77
2023-04-25T08:49:59.059Z,7.59
2023-04-25T08:52:29.078Z,7.69
2023-04-25T08:54:56.425Z,7.68
2023-04-25T08:57:24.016Z,7.86
2023-04-25T08:59:52.919Z,8.21
2023-04-25T09:02:21.694Z,8.43
2023-04-25T09:04:50.651Z,8.71
2023-04-25T09:07:19.576Z,8.47
2023-04-25T09:09:46.229Z,8.64
2023-04-25T09:12:15.391Z,8.51
2023-04-25T09:14:43.354Z,8.57
2023-04-25T09:17:18.886Z,8.84
2023-04-25T09:19:52.046Z,9.02
2023-04-25T09:22:37.810Z,8.92
2023-04-25T09:25:09.450Z,9.07
2023-04-25T09:27:37.371Z,9.14
2023-04-25T09:30:17.175Z,9.37
2023-04-25T09:32:59.431Z,9.89
2023-04-25T09:35:27.296Z,9.37
2023-04-25T09:37:55.085Z,9.44
2023-04-25T09:40:46.135Z,9.28
2023-04-25T09:43:23.535Z,9.10
2023-04-25T09:45:52.626Z,8.97
2023-04-25T09:48:23.392Z,8.81
2023-04-25T09:51:14.488Z,8.69
2023-04-25T09:53:47.274Z,8.40
2023-04-25T09:56:23.322Z,8.35
2023-04-25T09:58:54.703Z,8.32
2023-04-25T10:01:22.558Z,8.23
2023-04-25T10:04:12.222Z,8.09
2023-04-25T10:06:56.185Z,8.01
2023-04-25T10:09:26.595Z,7.91
2023-04-25T10:11:53.932Z,8.01
2023-04-25T10:14:20.597Z,8.23
2023-04-25T10:16:48.191Z,8.11
2023-04-25T10:19:15.519Z,8.16
2023-04-25T10:21:52.160Z,8.33
2023-04-25T10:24:20.278Z,8.64
2023-04-25T10:26:48.164Z,8.66
2023-04-25T10:29:22.834Z,8.49
2023-04-25T10:31:49.309Z,8.45
2023-04-25T10:34:17.922Z,8.25
2023-04-25T10:36:50.784Z,7.92
2023-04-25T10:39:24.044Z,7.91
2023-04-25T10:41:58.951Z,7.93
2023-04-25T10:44:29.904Z,8.14
2023-04-25T10:46:58.815Z,8.69
2023-04-25T10:49:39.091Z,9.31
2023-04-25T10:52:24.836Z,9.77
2023-04-25T10:54:56.566Z,9.99
2023-04-25T10:57:42.968Z,9.44
2023-04-25T11:00:13.086Z,9.21
2023-04-25T11:02:48.370Z,9.17
2023-04-25T11:05:30.181Z,8.84
2023-04-25T11:08:07.866Z,8.76
2023-04-25T11:10:38.129Z,8.43
2023-04-25T11:13:06.037Z,8.28
2023-04-25T11:15:32.691Z,8.05
2023-04-25T11:17:59.336Z,7.98
2023-04-25T11:20:29.211Z,7.96
2023-04-25T11:22:59.390Z,7.85
2023-04-25T11:25:26.747Z,7.81
2023-04-25T11:27:58.094Z,7.93
2023-04-25T11:30:26.631Z,7.90
2023-04-25T11:32:53.369Z,7.70
2023-04-25T11:35:22.236Z,7.69
2023-04-25T11:37:48.964Z,7.82
2023-04-25T11:40:15.714Z,7.93
2023-04-25T11:42:46.912Z,8.03
2023-04-25T11:45:14.353Z,8.17
2023-04-25T11:47:41.035Z,8.16
2023-04-25T11:50:09.025Z,8.24
2023-04-25T11:52:43.877Z,8.46
2023-04-25T11:55:21.058Z,8.73
2023-04-25T11:57:52.857Z,8.97
2023-04-25T12:00:21.876Z,9.25
2023-04-25T12:02:53.112Z,9.33
2023-04-25T12:05:31.873Z,9.49
2023-04-25T12:08:10.126Z,9.92
2023-04-25T12:10:38.833Z,9.73
2023-04-25T12:13:22.819Z,9.31
2023-04-25T12:15:49.964Z,8.70
2023-04-25T12:18:20.738Z,8.22
2023-04-25T12:20:47.501Z,7.89
2023-04-25T12:23:14.040Z,7.66
2023-04-25T12:25:42.905Z,7.39
2023-04-25T12:28:20.895Z,7.37
2023-04-25T12:31:06.625Z,7.30
2023-04-25T12:33:34.830Z,7.16
2023-04-25T12:36:06.422Z,7.05
2023-04-25T12:38:37.445Z,6.84
2023-04-25T12:41:03.868Z,6.76
2023-04-25T12:43:30.405Z,6.51
2023-04-25T12:45:57.969Z,6.44
2023-04-25T12:48:24.977Z,6.31
2023-04-25T12:50:52.789Z,6.33
2023-04-25T12:53:21.365Z,6.27
2023-04-25T12:55:48.774Z,6.12
2023-04-25T12:58:16.718Z,6.06
2023-04-25T13:00:43.879Z,6.13
2023-04-25T13:03:12.092Z,5.90
2023-04-25T13:05:39.393Z,6.16
2023-04-25T13:08:05.907Z,6.28
2023-04-25T13:10:32.381Z,6.67
2023-04-25T13:12:58.777Z,6.89
2023-04-25T13:15:25.908Z,7.40
2023-04-25T13:17:52.466Z,7.92
2023-04-25T13:20:19.855Z,8.33
2023-04-25T13:22:46.853Z,8.74
2023-04-25T13:25:13.286Z,9.09
2023-04-25T13:27:41.853Z,9.15
2023-04-25T13:30:08.840Z,9.19
2023-04-25T13:32:39.202Z,8.96
2023-04-25T13:35:10.474Z,8.67
2023-04-25T13:37:37.749Z,8.07
2023-04-25T13:40:06.545Z,7.65
2023-04-25T13:42:33.351Z,7.56
2023-04-25T13:44:59.900Z,7.37
2023-04-25T13:47:27.755Z,7.53
2023-04-25T13:49:55.376Z,7.65
2023-04-25T13:52:21.896Z,7.86
2023-04-25T13:54:48.353Z,7.85
2023-04-25T13:57:14.774Z,7.99
2023-04-25T13:59:41.853Z,8.05
2023-04-25T14:02:08.524Z,8.26
2023-04-25T14:04:35.021Z,8.28
2023-04-25T14:07:02.209Z,8.51
2023-04-25T14:09:29.002Z,8.74
2023-04-25T14:11:56.165Z,9.04
2023-04-25T14:14:23.223Z,9.34
2023-04-25T14:16:51.174Z,9.58
2023-04-25T14:19:20.292Z,9.73
2023-04-25T14:21:48.863Z,9.79
2023-04-25T14:24:15.754Z,10.17
2023-04-25T14:26:43.371Z,10.09
2023-04-25T14:29:12.506Z,10.05
2023-04-25T14:31:40.406Z,9.77
2023-04-25T14:34:06.978Z,9.51
2023-04-25T14:36:34.527Z,9.31
2023-04-25T14:39:01.044Z,9.18
2023-04-25T14:41:28.033Z,9.20
2023-04-25T14:43:54.554Z,9.13
2023-04-25T14:46:23.134Z,8.94
2023-04-25T14:48:50.312Z,8.44
2023-04-25T14:51:16.804Z,8.18
2023-04-25T14:53:43.359Z,8.10
2023-04-25T14:56:09.920Z,8.13
2023-04-25T14:58:36.466Z,8.28
2023-04-25T15:01:03.146Z,8.39
2023-04-25T15:03:29.873Z,8.56
2023-04-25T15:05:56.746Z,8.84
2023-04-25T15:08:23.342Z,9.19
2023-04-25T15:10:50.272Z,9.45
2023-04-25T15:13:17.001Z,9.82
2023-04-25T15:15:43.418Z,9.83
2023-04-25T15:18:09.870Z,10.15
2023-04-25T15:20:36.435Z,10.00
2023-04-25T15:23:04.389Z,9.49
2023-04-25T15:25:30.936Z,9.43
2023-04-25T15:27:57.673Z,9.48
2023-04-25T15:30:24.228Z,8.95
2023-04-25T15:32:50.684Z,8.21
2023-04-25T15:35:17.224Z,7.73
2023-04-25T15:37:44.025Z,7.45
2023-04-25T15:40:14.538Z,7.37
2023-04-25T15:42:52.638Z,7.35
2023-04-25T15:45:21.510Z,7.36
2023-04-25T15:47:48.302Z,7.48
2023-04-25T15:50:15.967Z,7.59
2023-04-25T15:52:43.493Z,7.79
2023-04-25T15:55:10.614Z,7.83
2023-04-25T15:57:37.297Z,8.13
2023-04-25T16:00:11.273Z,8.24
2023-04-25T16:02:42.336Z,8.44
2023-04-25T16:05:11.173Z,8.69
2023-04-25T16:07:39.440Z,8.63
2023-04-25T16:10:06.481Z,8.55
2023-04-25T16:12:33.139Z,8.37
2023-04-25T16:14:59.572Z,8.60
2023-04-25T16:17:28.012Z,8.55
2023-04-25T16:19:54.485Z,8.53
2023-04-25T16:22:21.302Z,8.58
2023-04-25T16:24:48.126Z,8.63
2023-04-25T16:27:14.929Z,8.50
2023-04-25T16:29:41.804Z,8.43
2023-04-25T16:32:08.464Z,8.29
2023-04-25T16:34:34.919Z,8.20
2023-04-25T16:37:02.243Z,8.08
2023-04-25T16:39:28.868Z,8.11
2023-04-25T16:41:55.391Z,8.27
2023-04-25T16:44:21.903Z,8.40
2023-04-25T16:46:48.428Z,8.42
2023-04-25T16:49:14.876Z,8.32
2023-04-25T16:51:41.356Z,8.19
2023-04-25T16:54:07.936Z,8.02
2023-04-25T16:56:34.419Z,8.14
2023-04-25T16:59:00.850Z,8.20
2023-04-25T17:01:27.992Z,8.37
2023-04-25T17:03:54.610Z,8.42
2023-04-25T17:06:21.286Z,8.32
2023-04-25T17:08:48.007Z,8.34
2023-04-25T17:11:14.483Z,8.00
2023-04-25T17:13:43.341Z,8.03
2023-04-25T17:16:11.793Z,8.05
2023-04-25T17:18:38.649Z,8.06
2023-04-25T17:21:06.093Z,8.04
2023-04-25T17:23:32.756Z,8.11
2023-04-25T17:25:59.442Z,8.11
2023-04-25T17:28:26.390Z,8.02
2023-04-25T17:30:52.958Z,8.03
2023-04-25T17:33:19.450Z,8.07
2023-04-25T17:35:46.150Z,8.06
2023-04-25T17:38:14.723Z,7.90
2023-04-25T17:40:41.203Z,7.88
2023-04-25T17:43:07.712Z,7.73
2023-04-25T17:45:34.710Z,7.86
2023-04-25T17:48:03.712Z,7.82
2023-04-25T17:50:31.215Z,7.67
2023-04-25T17:52:58.255Z,7.72
2023-04-25T17:55:25.015Z,7.54
2023-04-25T17:57:51.677Z,7.35
2023-04-25T18:00:18.560Z,7.34
2023-04-25T18:02:53.587Z,7.29
2023-04-25T18:05:20.295Z,7.35
2023-04-25T18:07:47.132Z,7.09
2023-04-25T18:10:14.451Z,7.12
2023-04-25T18:12:40.874Z,7.24
2023-04-25T18:15:07.916Z,7.07
2023-04-25T18:17:39.862Z,6.99
2023-04-25T18:20:10.230Z,6.96
2023-04-25T18:22:37.930Z,6.90
2023-04-25T18:25:05.689Z,6.87
2023-04-25T18:27:32.844Z,6.64
2023-04-25T18:29:59.706Z,6.55
2023-04-25T18:32:28.399Z,6.59
2023-04-25T18:34:55.479Z,6.64
2023-04-25T18:37:22.240Z,6.57
2023-04-25T18:39:49.179Z,6.49
2023-04-25T18:42:16.439Z,6.45
2023-04-25T18:44:43.467Z,6.32
2023-04-25T18:47:13.185Z,6.25
2023-04-25T18:49:40.482Z,6.25
2023-04-25T18:52:10.586Z,6.28
2023-04-25T18:54:37.295Z,6.22
2023-04-25T18:57:04.226Z,6.28
2023-04-25T18:59:31.551Z,6.34
2023-04-25T19:01:58.238Z,6.33
2023-04-25T19:04:24.896Z,6.33
2023-04-25T19:06:52.159Z,6.33
2023-04-25T19:09:18.588Z,6.43
2023-04-25T19:11:45.497Z,6.36
2023-04-25T19:14:13.967Z,6.39
2023-04-25T19:16:40.562Z,6.42
2023-04-25T19:19:09.653Z,6.36
2023-04-25T19:21:36.374Z,6.29
2023-04-25T19:24:05.007Z,6.14
2023-04-25T19:26:31.669Z,6.23
2023-04-25T19:29:09.969Z,6.19
2023-04-25T19:31:37.842Z,6.06
2023-04-25T19:34:05.711Z,6.10
2023-04-25T19:36:32.425Z,6.07
2023-04-25T19:39:03.673Z,5.94
2023-04-25T19:41:31.659Z,5.99
2023-04-25T19:44:00.826Z,5.92
2023-04-25T19:46:27.739Z,5.85
2023-04-25T19:48:54.590Z,5.86
2023-04-25T19:51:21.047Z,5.75
2023-04-25T19:53:47.504Z,5.79
2023-04-25T19:56:14.000Z,5.85
2023-04-25T19:58:40.503Z,5.65
2023-04-25T20:01:09.087Z,5.70
2023-04-25T20:03:35.805Z,5.61
2023-04-25T20:06:02.757Z,5.69
2023-04-25T20:08:29.215Z,5.68
2023-04-25T20:10:55.653Z,5.62
2023-04-25T20:13:22.689Z,5.66
2023-04-25T20:15:49.470Z,5.62
2023-04-25T20:18:15.865Z,5.47
2023-04-25T20:20:42.302Z,5.48
2023-04-25T20:23:08.764Z,5.49
2023-04-25T20:25:35.581Z,5.53
2023-04-25T20:28:02.424Z,5.36
2023-04-25T20:30:29.284Z,5.29
2023-04-25T20:32:56.587Z,5.11
2023-04-25T20:35:23.165Z,4.99
2023-04-25T20:37:50.810Z,4.94
2023-04-25T20:40:17.231Z,4.85
2023-04-25T20:42:43.634Z,4.80
2023-04-25T20:45:13.363Z,4.76
2023-04-25T20:47:41.036Z,4.77
2023-04-25T20:50:08.369Z,4.72
2023-04-25T20:52:37.147Z,4.70
2023-04-25T20:55:03.742Z,4.73
2023-04-25T20:57:30.262Z,4.62
2023-04-25T20:59:57.174Z,4.69
2023-04-25T21:02:24.246Z,4.55
2023-04-25T21:04:51.711Z,4.71
2023-04-25T21:07:18.123Z,4.58
2023-04-25T21:09:45.547Z,4.56
2023-04-25T21:12:12.423Z,4.48
2023-04-25T21:14:38.958Z,4.39
2023-04-25T21:17:05.592Z,4.36
2023-04-25T21:19:32.247Z,4.35
2023-04-25T21:21:59.207Z,4.35
2023-04-25T21:24:27.226Z,4.25
2023-04-25T21:26:53.652Z,4.20
2023-04-25T21:29:20.218Z,4.24
2023-04-25T21:31:46.876Z,4.17
2023-04-25T21:34:13.524Z,4.08
2023-04-25T21:36:41.269Z,4.03
2023-04-25T21:39:07.937Z,4.01
2023-04-25T21:41:34.348Z,3.98
2023-04-25T21:44:00.987Z,4.02
2023-04-25T21:46:27.562Z,4.01
2023-04-25T21:48:54.633Z,3.92
2023-04-25T21:51:21.422Z,3.88
2023-04-25T21:53:48.024Z,3.89
2023-04-25T21:56:14.562Z,3.80
2023-04-25T21:58:41.017Z,3.78
2023-04-25T22:01:07.448Z,3.71
2023-04-25T22:03:34.216Z,3.66
2023-04-25T22:06:02.257Z,3.68
2023-04-25T22:08:28.712Z,3.68
2023-04-25T22:10:56.183Z,3.66
2023-04-25T22:13:22.783Z,3.64
2023-04-25T22:15:49.444Z,3.71
2023-04-25T22:18:16.246Z,3.66
2023-04-25T22:20:44.168Z,3.66
2023-04-25T22:23:12.056Z,3.61
2023-04-25T22:25:38.657Z,3.53
2023-04-25T22:28:05.224Z,3.53
2023-04-25T22:30:32.385Z,3.47
2023-04-25T22:32:59.318Z,3.48
2023-04-25T22:35:26.137Z,3.55
2023-04-25T22:37:52.992Z,3.59
2023-04-25T22:40:19.412Z,3.57
2023-04-25T22:42:46.126Z,3.42
2023-04-25T22:45:12.774Z,3.26
2023-04-25T22:47:40.375Z,3.25
2023-04-25T22:50:12.134Z,3.21
2023-04-25T22:52:38.963Z,3.18
2023-04-25T22:55:06.402Z,3.15
2023-04-25T22:57:33.052Z,3.08
2023-04-25T22:59:59.603Z,3.00
2023-04-25T23:02:27.339Z,2.93
2023-04-25T23:04:55.034Z,2.89
2023-04-25T23:07:21.564Z,2.93
2023-04-25T23:09:48.352Z,2.87
2023-04-25T23:12:18.432Z,2.87
2023-04-25T23:14:49.259Z,2.82
2023-04-25T23:17:16.078Z,2.73
2023-04-25T23:19:42.474Z,2.70
2023-04-25T23:22:09.376Z,2.73
2023-04-25T23:24:37.613Z,2.73
2023-04-25T23:27:04.104Z,2.79
2023-04-25T23:29:33.208Z,2.76
2023-04-25T23:32:01.318Z,2.77
2023-04-25T23:34:31.720Z,2.85
2023-04-25T23:37:01.150Z,2.77
2023-04-25T23:39:28.342Z,2.70
2023-04-25T23:41:54.985Z,2.70
2023-04-25T23:44:22.134Z,2.64
2023-04-25T23:46:48.915Z,2.59
2023-04-25T23:49:15.469Z,2.49
2023-04-25T23:51:41.945Z,2.51
2023-04-25T23:54:08.424Z,2.51
2023-04-25T23:56:34.796Z,2.55
2023-04-25T23:59:02.324Z,2.51
